sensor_id;sensor_type;location;lat;lon;timestamp;P1;durP1;ratioP1;P2;durP2;ratioP2
16824;SDS011;8529;48.108;-1.706;2023-02-28T00:00:24;9.67;;;4.33;;
16824;SDS011;8529;48.108;-1.706;2023-02-28T00:02:51;10.03;;;4.30;;
16824;SDS011;8529;48.108;-1.706;2023-02-28T00:05:21;10.03;;;4.20;;
16824;SDS011;8529;48.108;-1.706;2023-02-28T00:07:50;5.70;;;3.50;;
16824;SDS011;8529;48.108;-1.706;2023-02-28T00:10:17;6.23;;;3.90;;
16824;SDS011;8529;48.108;-1.706;2023-02-28T00:12:46;9.70;;;3.83;;
16824;SDS011;8529;48.108;-1.706;2023-02-28T00:15:13;7.57;;;4.30;;
16824;SDS011;8529;48.108;-1.706;2023-02-28T00:17:40;8.13;;;4.63;;
16824;SDS011;8529;48.108;-1.706;2023-02-28T00:20:07;6.47;;;3.77;;
16824;SDS011;8529;48.108;-1.706;2023-02-28T00:22:38;10.03;;;4.10;;
16824;SDS011;8529;48.108;-1.706;2023-02-28T00:25:07;10.00;;;4.47;;
16824;SDS011;8529;48.108;-1.706;2023-02-28T00:27:35;7.23;;;4.30;;
16824;SDS011;8529;48.108;-1.706;2023-02-28T00:30:03;7.63;;;4.30;;
16824;SDS011;8529;48.108;-1.706;2023-02-28T00:32:32;8.17;;;4.10;;
16824;SDS011;8529;48.108;-1.706;2023-02-28T00:34:59;7.60;;;4.37;;
16824;SDS011;8529;48.108;-1.706;2023-02-28T00:37:26;8.73;;;3.97;;
16824;SDS011;8529;48.108;-1.706;2023-02-28T00:39:55;8.93;;;4.67;;
16824;SDS011;8529;48.108;-1.706;2023-02-28T00:42:22;8.33;;;4.40;;
16824;SDS011;8529;48.108;-1.706;2023-02-28T00:44:49;8.93;;;4.40;;
16824;SDS011;8529;48.108;-1.706;2023-02-28T00:47:16;8.27;;;4.10;;
16824;SDS011;8529;48.108;-1.706;2023-02-28T00:49:43;9.17;;;3.60;;
16824;SDS011;8529;48.108;-1.706;2023-02-28T00:52:10;10.30;;;4.20;;
16824;SDS011;8529;48.108;-1.706;2023-02-28T00:54:37;6.90;;;4.37;;
16824;SDS011;8529;48.108;-1.706;2023-02-28T00:57:05;7.30;;;3.93;;
16824;SDS011;8529;48.108;-1.706;2023-02-28T00:59:32;7.47;;;3.67;;
16824;SDS011;8529;48.108;-1.706;2023-02-28T01:01:59;6.73;;;3.50;;
16824;SDS011;8529;48.108;-1.706;2023-02-28T01:04:26;11.30;;;6.43;;
16824;SDS011;8529;48.108;-1.706;2023-02-28T01:06:53;10.80;;;4.27;;
16824;SDS011;8529;48.108;-1.706;2023-02-28T01:09:20;7.20;;;3.93;;
16824;SDS011;8529;48.108;-1.706;2023-02-28T01:11:47;8.13;;;4.20;;
16824;SDS011;8529;48.108;-1.706;2023-02-28T01:14:15;8.60;;;4.33;;
16824;SDS011;8529;48.108;-1.706;2023-02-28T01:16:43;6.83;;;4.10;;
16824;SDS011;8529;48.108;-1.706;2023-02-28T01:19:10;7.67;;;4.33;;
16824;SDS011;8529;48.108;-1.706;2023-02-28T01:21:37;7.13;;;4.07;;
16824;SDS011;8529;48.108;-1.706;2023-02-28T01:24:05;5.83;;;3.90;;
16824;SDS011;8529;48.108;-1.706;2023-02-28T01:26:32;7.87;;;4.20;;
16824;SDS011;8529;48.108;-1.706;2023-02-28T01:28:59;8.10;;;3.57;;
16824;SDS011;8529;48.108;-1.706;2023-02-28T01:31:28;6.97;;;3.73;;
16824;SDS011;8529;48.108;-1.706;2023-02-28T01:33:55;5.90;;;3.77;;
16824;SDS011;8529;48.108;-1.706;2023-02-28T01:36:22;6.17;;;3.73;;
16824;SDS011;8529;48.108;-1.706;2023-02-28T01:38:50;6.30;;;3.70;;
16824;SDS011;8529;48.108;-1.706;2023-02-28T01:41:18;7.63;;;4.50;;
16824;SDS011;8529;48.108;-1.706;2023-02-28T01:43:57;5.23;;;3.43;;
16824;SDS011;8529;48.108;-1.706;2023-02-28T01:46:30;5.93;;;3.63;;
16824;SDS011;8529;48.108;-1.706;2023-02-28T01:49:00;6.80;;;3.93;;
16824;SDS011;8529;48.108;-1.706;2023-02-28T01:51:33;7.10;;;3.87;;
16824;SDS011;8529;48.108;-1.706;2023-02-28T01:54:05;6.97;;;4.30;;
16824;SDS011;8529;48.108;-1.706;2023-02-28T01:56:39;7.13;;;3.90;;
16824;SDS011;8529;48.108;-1.706;2023-02-28T01:59:10;7.67;;;4.70;;
16824;SDS011;8529;48.108;-1.706;2023-02-28T02:01:41;5.60;;;3.50;;
16824;SDS011;8529;48.108;-1.706;2023-02-28T02:04:09;6.70;;;4.10;;
16824;SDS011;8529;48.108;-1.706;2023-02-28T02:06:37;6.33;;;3.53;;
16824;SDS011;8529;48.108;-1.706;2023-02-28T02:09:06;5.53;;;4.20;;
16824;SDS011;8529;48.108;-1.706;2023-02-28T02:11:33;9.03;;;4.47;;
16824;SDS011;8529;48.108;-1.706;2023-02-28T02:14:06;8.10;;;4.47;;
16824;SDS011;8529;48.108;-1.706;2023-02-28T02:16:52;9.17;;;4.83;;
16824;SDS011;8529;48.108;-1.706;2023-02-28T02:19:41;8.57;;;4.30;;
16824;SDS011;8529;48.108;-1.706;2023-02-28T02:22:43;7.53;;;4.03;;
16824;SDS011;8529;48.108;-1.706;2023-02-28T02:25:34;7.43;;;4.00;;
16824;SDS011;8529;48.108;-1.706;2023-02-28T02:34:26;7.17;;;4.17;;
16824;SDS011;8529;48.108;-1.706;2023-02-28T02:37:13;8.03;;;4.20;;
16824;SDS011;8529;48.108;-1.706;2023-02-28T02:39:55;8.10;;;4.43;;
16824;SDS011;8529;48.108;-1.706;2023-02-28T02:42:31;8.57;;;4.70;;
16824;SDS011;8529;48.108;-1.706;2023-02-28T02:45:08;7.17;;;4.60;;
16824;SDS011;8529;48.108;-1.706;2023-02-28T02:47:38;9.13;;;5.10;;
16824;SDS011;8529;48.108;-1.706;2023-02-28T02:50:11;10.47;;;4.57;;
16824;SDS011;8529;48.108;-1.706;2023-02-28T02:52:43;8.73;;;4.73;;
16824;SDS011;8529;48.108;-1.706;2023-02-28T02:55:14;8.00;;;4.60;;
16824;SDS011;8529;48.108;-1.706;2023-02-28T02:57:45;7.97;;;5.13;;
16824;SDS011;8529;48.108;-1.706;2023-02-28T03:00:16;7.23;;;4.83;;
16824;SDS011;8529;48.108;-1.706;2023-02-28T03:02:46;7.23;;;4.90;;
16824;SDS011;8529;48.108;-1.706;2023-02-28T03:05:17;8.00;;;5.10;;
16824;SDS011;8529;48.108;-1.706;2023-02-28T03:07:46;8.80;;;5.00;;
16824;SDS011;8529;48.108;-1.706;2023-02-28T03:10:30;6.37;;;4.70;;
16824;SDS011;8529;48.108;-1.706;2023-02-28T03:13:25;9.50;;;4.83;;
16824;SDS011;8529;48.108;-1.706;2023-02-28T03:16:29;9.37;;;4.60;;
16824;SDS011;8529;48.108;-1.706;2023-02-28T03:19:14;6.43;;;4.80;;
16824;SDS011;8529;48.108;-1.706;2023-02-28T03:21:55;8.60;;;5.20;;
16824;SDS011;8529;48.108;-1.706;2023-02-28T03:24:34;7.57;;;5.17;;
16824;SDS011;8529;48.108;-1.706;2023-02-28T03:27:11;8.83;;;5.00;;
16824;SDS011;8529;48.108;-1.706;2023-02-28T03:29:43;6.47;;;4.70;;
16824;SDS011;8529;48.108;-1.706;2023-02-28T03:32:17;7.33;;;4.60;;
16824;SDS011;8529;48.108;-1.706;2023-02-28T03:34:51;7.63;;;4.73;;
16824;SDS011;8529;48.108;-1.706;2023-02-28T03:37:24;8.27;;;5.00;;
16824;SDS011;8529;48.108;-1.706;2023-02-28T03:39:55;10.53;;;5.17;;
16824;SDS011;8529;48.108;-1.706;2023-02-28T03:42:25;8.60;;;4.87;;
16824;SDS011;8529;48.108;-1.706;2023-02-28T03:44:56;8.27;;;5.30;;
16824;SDS011;8529;48.108;-1.706;2023-02-28T03:47:25;10.43;;;5.73;;
16824;SDS011;8529;48.108;-1.706;2023-02-28T03:49:57;7.53;;;5.27;;
16824;SDS011;8529;48.108;-1.706;2023-02-28T03:52:30;9.43;;;5.50;;
16824;SDS011;8529;48.108;-1.706;2023-02-28T03:55:02;9.17;;;5.20;;
16824;SDS011;8529;48.108;-1.706;2023-02-28T03:57:36;14.83;;;5.83;;
16824;SDS011;8529;48.108;-1.706;2023-02-28T04:00:07;8.03;;;5.20;;
16824;SDS011;8529;48.108;-1.706;2023-02-28T04:02:38;6.70;;;5.47;;
16824;SDS011;8529;48.108;-1.706;2023-02-28T04:05:06;10.27;;;5.80;;
16824;SDS011;8529;48.108;-1.706;2023-02-28T04:07:35;9.30;;;5.37;;
16824;SDS011;8529;48.108;-1.706;2023-02-28T04:10:03;10.37;;;5.67;;
16824;SDS011;8529;48.108;-1.706;2023-02-28T04:12:30;11.27;;;6.00;;
16824;SDS011;8529;48.108;-1.706;2023-02-28T04:14:57;10.30;;;5.73;;
16824;SDS011;8529;48.108;-1.706;2023-02-28T04:17:24;10.27;;;5.67;;
16824;SDS011;8529;48.108;-1.706;2023-02-28T04:19:51;10.67;;;6.80;;
16824;SDS011;8529;48.108;-1.706;2023-02-28T04:22:19;9.47;;;5.60;;
16824;SDS011;8529;48.108;-1.706;2023-02-28T04:24:47;8.60;;;5.40;;
16824;SDS011;8529;48.108;-1.706;2023-02-28T04:27:14;9.90;;;5.53;;
16824;SDS011;8529;48.108;-1.706;2023-02-28T04:29:41;8.17;;;5.47;;
16824;SDS011;8529;48.108;-1.706;2023-02-28T04:32:09;9.97;;;6.13;;
16824;SDS011;8529;48.108;-1.706;2023-02-28T04:34:37;8.87;;;5.83;;
16824;SDS011;8529;48.108;-1.706;2023-02-28T04:37:04;9.67;;;6.20;;
16824;SDS011;8529;48.108;-1.706;2023-02-28T04:39:34;10.37;;;6.53;;
16824;SDS011;8529;48.108;-1.706;2023-02-28T04:42:03;9.47;;;6.27;;
16824;SDS011;8529;48.108;-1.706;2023-02-28T04:44:30;10.90;;;6.17;;
16824;SDS011;8529;48.108;-1.706;2023-02-28T04:46:57;9.60;;;6.17;;
16824;SDS011;8529;48.108;-1.706;2023-02-28T04:49:24;7.93;;;5.97;;
16824;SDS011;8529;48.108;-1.706;2023-02-28T04:51:51;9.30;;;6.27;;
16824;SDS011;8529;48.108;-1.706;2023-02-28T04:54:18;9.17;;;6.67;;
16824;SDS011;8529;48.108;-1.706;2023-02-28T04:56:45;9.30;;;6.60;;
16824;SDS011;8529;48.108;-1.706;2023-02-28T04:59:16;10.83;;;6.57;;
16824;SDS011;8529;48.108;-1.706;2023-02-28T05:01:45;11.77;;;6.87;;
16824;SDS011;8529;48.108;-1.706;2023-02-28T05:04:13;8.97;;;6.20;;
16824;SDS011;8529;48.108;-1.706;2023-02-28T05:06:40;10.47;;;6.93;;
16824;SDS011;8529;48.108;-1.706;2023-02-28T05:09:07;9.67;;;6.87;;
16824;SDS011;8529;48.108;-1.706;2023-02-28T05:11:36;11.27;;;7.37;;
16824;SDS011;8529;48.108;-1.706;2023-02-28T05:14:05;15.10;;;7.70;;
16824;SDS011;8529;48.108;-1.706;2023-02-28T05:16:34;9.83;;;6.50;;
16824;SDS011;8529;48.108;-1.706;2023-02-28T05:19:01;13.13;;;6.87;;
16824;SDS011;8529;48.108;-1.706;2023-02-28T05:21:29;11.90;;;7.20;;
16824;SDS011;8529;48.108;-1.706;2023-02-28T05:23:58;11.57;;;7.13;;
16824;SDS011;8529;48.108;-1.706;2023-02-28T05:26:26;10.97;;;6.73;;
16824;SDS011;8529;48.108;-1.706;2023-02-28T05:28:54;11.73;;;7.57;;
16824;SDS011;8529;48.108;-1.706;2023-02-28T05:31:21;11.80;;;6.87;;
16824;SDS011;8529;48.108;-1.706;2023-02-28T05:33:49;10.83;;;7.70;;
16824;SDS011;8529;48.108;-1.706;2023-02-28T05:36:16;11.50;;;7.33;;
16824;SDS011;8529;48.108;-1.706;2023-02-28T05:38:45;12.87;;;7.00;;
16824;SDS011;8529;48.108;-1.706;2023-02-28T05:41:12;12.87;;;8.30;;
16824;SDS011;8529;48.108;-1.706;2023-02-28T05:43:39;12.23;;;7.53;;
16824;SDS011;8529;48.108;-1.706;2023-02-28T05:46:07;10.73;;;7.30;;
16824;SDS011;8529;48.108;-1.706;2023-02-28T05:48:36;13.27;;;7.83;;
16824;SDS011;8529;48.108;-1.706;2023-02-28T05:51:06;10.20;;;7.47;;
16824;SDS011;8529;48.108;-1.706;2023-02-28T05:53:34;10.60;;;6.90;;
16824;SDS011;8529;48.108;-1.706;2023-02-28T05:56:02;15.43;;;7.33;;
16824;SDS011;8529;48.108;-1.706;2023-02-28T05:58:29;14.47;;;7.90;;
16824;SDS011;8529;48.108;-1.706;2023-02-28T06:00:57;12.63;;;7.37;;
16824;SDS011;8529;48.108;-1.706;2023-02-28T06:03:24;15.43;;;7.73;;
16824;SDS011;8529;48.108;-1.706;2023-02-28T06:05:51;12.57;;;8.50;;
16824;SDS011;8529;48.108;-1.706;2023-02-28T06:08:20;10.83;;;8.27;;
16824;SDS011;8529;48.108;-1.706;2023-02-28T06:10:47;11.33;;;7.37;;
16824;SDS011;8529;48.108;-1.706;2023-02-28T06:13:14;15.00;;;7.70;;
16824;SDS011;8529;48.108;-1.706;2023-02-28T06:15:41;9.83;;;6.80;;
16824;SDS011;8529;48.108;-1.706;2023-02-28T06:18:08;14.40;;;8.93;;
16824;SDS011;8529;48.108;-1.706;2023-02-28T06:20:35;13.13;;;7.97;;
16824;SDS011;8529;48.108;-1.706;2023-02-28T06:23:02;12.60;;;8.17;;
16824;SDS011;8529;48.108;-1.706;2023-02-28T06:25:30;14.40;;;8.57;;
16824;SDS011;8529;48.108;-1.706;2023-02-28T06:27:57;15.33;;;8.67;;
16824;SDS011;8529;48.108;-1.706;2023-02-28T06:30:24;12.03;;;7.97;;
16824;SDS011;8529;48.108;-1.706;2023-02-28T06:32:53;13.27;;;7.63;;
16824;SDS011;8529;48.108;-1.706;2023-02-28T06:35:20;14.33;;;7.87;;
16824;SDS011;8529;48.108;-1.706;2023-02-28T06:37:47;14.63;;;7.87;;
16824;SDS011;8529;48.108;-1.706;2023-02-28T06:40:15;14.13;;;8.63;;
16824;SDS011;8529;48.108;-1.706;2023-02-28T06:42:43;14.77;;;8.43;;
16824;SDS011;8529;48.108;-1.706;2023-02-28T06:45:10;13.30;;;7.57;;
16824;SDS011;8529;48.108;-1.706;2023-02-28T06:47:38;15.03;;;8.33;;
16824;SDS011;8529;48.108;-1.706;2023-02-28T06:50:06;16.70;;;8.33;;
16824;SDS011;8529;48.108;-1.706;2023-02-28T06:52:35;14.20;;;8.47;;
16824;SDS011;8529;48.108;-1.706;2023-02-28T06:55:02;12.87;;;8.57;;
16824;SDS011;8529;48.108;-1.706;2023-02-28T06:57:30;16.13;;;9.33;;
16824;SDS011;8529;48.108;-1.706;2023-02-28T07:00:00;14.23;;;9.10;;
16824;SDS011;8529;48.108;-1.706;2023-02-28T07:02:29;15.70;;;9.37;;
16824;SDS011;8529;48.108;-1.706;2023-02-28T07:04:56;14.37;;;8.60;;
16824;SDS011;8529;48.108;-1.706;2023-02-28T07:07:23;15.13;;;9.27;;
16824;SDS011;8529;48.108;-1.706;2023-02-28T07:09:50;13.43;;;9.23;;
16824;SDS011;8529;48.108;-1.706;2023-02-28T07:12:17;13.00;;;8.97;;
16824;SDS011;8529;48.108;-1.706;2023-02-28T07:14:44;19.70;;;10.03;;
16824;SDS011;8529;48.108;-1.706;2023-02-28T07:17:12;17.90;;;9.97;;
16824;SDS011;8529;48.108;-1.706;2023-02-28T07:19:39;16.60;;;9.73;;
16824;SDS011;8529;48.108;-1.706;2023-02-28T07:22:06;18.60;;;9.90;;
16824;SDS011;8529;48.108;-1.706;2023-02-28T07:24:33;15.67;;;9.40;;
16824;SDS011;8529;48.108;-1.706;2023-02-28T07:27:00;17.13;;;10.27;;
16824;SDS011;8529;48.108;-1.706;2023-02-28T07:29:28;16.90;;;10.50;;
16824;SDS011;8529;48.108;-1.706;2023-02-28T07:31:55;16.70;;;9.97;;
16824;SDS011;8529;48.108;-1.706;2023-02-28T07:34:24;14.13;;;8.53;;
16824;SDS011;8529;48.108;-1.706;2023-02-28T07:36:52;16.97;;;9.13;;
16824;SDS011;8529;48.108;-1.706;2023-02-28T07:39:19;17.10;;;10.03;;
16824;SDS011;8529;48.108;-1.706;2023-02-28T07:41:46;16.97;;;9.17;;
16824;SDS011;8529;48.108;-1.706;2023-02-28T07:44:13;16.47;;;10.07;;
16824;SDS011;8529;48.108;-1.706;2023-02-28T07:46:40;18.30;;;10.30;;
16824;SDS011;8529;48.108;-1.706;2023-02-28T07:49:07;16.20;;;10.10;;
16824;SDS011;8529;48.108;-1.706;2023-02-28T07:51:36;17.43;;;10.50;;
16824;SDS011;8529;48.108;-1.706;2023-02-28T07:54:03;18.20;;;9.53;;
16824;SDS011;8529;48.108;-1.706;2023-02-28T07:56:30;20.13;;;10.27;;
16824;SDS011;8529;48.108;-1.706;2023-02-28T07:58:57;17.60;;;9.60;;
16824;SDS011;8529;48.108;-1.706;2023-02-28T08:01:24;17.20;;;10.23;;
16824;SDS011;8529;48.108;-1.706;2023-02-28T08:03:51;17.23;;;9.87;;
16824;SDS011;8529;48.108;-1.706;2023-02-28T08:06:20;21.90;;;10.77;;
16824;SDS011;8529;48.108;-1.706;2023-02-28T08:08:49;14.97;;;9.63;;
16824;SDS011;8529;48.108;-1.706;2023-02-28T08:11:17;16.07;;;10.27;;
16824;SDS011;8529;48.108;-1.706;2023-02-28T08:13:44;17.30;;;10.57;;
16824;SDS011;8529;48.108;-1.706;2023-02-28T08:16:12;17.53;;;10.80;;
16824;SDS011;8529;48.108;-1.706;2023-02-28T08:18:42;17.43;;;9.50;;
16824;SDS011;8529;48.108;-1.706;2023-02-28T08:21:09;16.27;;;10.10;;
16824;SDS011;8529;48.108;-1.706;2023-02-28T08:23:37;15.20;;;9.67;;
16824;SDS011;8529;48.108;-1.706;2023-02-28T08:26:05;18.23;;;9.83;;
16824;SDS011;8529;48.108;-1.706;2023-02-28T08:28:32;17.90;;;10.10;;
16824;SDS011;8529;48.108;-1.706;2023-02-28T08:30:59;18.00;;;10.17;;
16824;SDS011;8529;48.108;-1.706;2023-02-28T08:33:27;21.03;;;10.50;;
16824;SDS011;8529;48.108;-1.706;2023-02-28T08:35:54;19.27;;;10.90;;
16824;SDS011;8529;48.108;-1.706;2023-02-28T08:38:21;19.90;;;10.73;;
16824;SDS011;8529;48.108;-1.706;2023-02-28T08:40:48;16.93;;;11.07;;
16824;SDS011;8529;48.108;-1.706;2023-02-28T08:43:16;19.63;;;11.87;;
16824;SDS011;8529;48.108;-1.706;2023-02-28T08:45:43;17.60;;;10.77;;
16824;SDS011;8529;48.108;-1.706;2023-02-28T08:48:10;17.60;;;10.50;;
16824;SDS011;8529;48.108;-1.706;2023-02-28T08:50:38;18.23;;;10.43;;
16824;SDS011;8529;48.108;-1.706;2023-02-28T08:53:05;23.83;;;12.13;;
16824;SDS011;8529;48.108;-1.706;2023-02-28T08:55:32;19.17;;;10.57;;
16824;SDS011;8529;48.108;-1.706;2023-02-28T08:57:59;25.77;;;13.13;;
16824;SDS011;8529;48.108;-1.706;2023-02-28T09:00:27;18.17;;;11.23;;
16824;SDS011;8529;48.108;-1.706;2023-02-28T09:02:54;20.93;;;10.90;;
16824;SDS011;8529;48.108;-1.706;2023-02-28T09:05:21;20.50;;;11.97;;
16824;SDS011;8529;48.108;-1.706;2023-02-28T09:07:49;22.90;;;11.97;;
16824;SDS011;8529;48.108;-1.706;2023-02-28T09:10:16;19.50;;;10.87;;
16824;SDS011;8529;48.108;-1.706;2023-02-28T09:12:43;16.30;;;9.97;;
16824;SDS011;8529;48.108;-1.706;2023-02-28T09:15:11;19.37;;;11.43;;
16824;SDS011;8529;48.108;-1.706;2023-02-28T09:17:40;18.23;;;10.77;;
16824;SDS011;8529;48.108;-1.706;2023-02-28T09:20:07;18.90;;;11.03;;
16824;SDS011;8529;48.108;-1.706;2023-02-28T09:22:35;17.13;;;10.37;;
16824;SDS011;8529;48.108;-1.706;2023-02-28T09:25:02;17.87;;;10.40;;
16824;SDS011;8529;48.108;-1.706;2023-02-28T09:27:29;18.40;;;11.00;;
16824;SDS011;8529;48.108;-1.706;2023-02-28T09:29:56;15.93;;;10.10;;
16824;SDS011;8529;48.108;-1.706;2023-02-28T09:32:23;17.43;;;10.60;;
16824;SDS011;8529;48.108;-1.706;2023-02-28T09:34:52;17.77;;;9.83;;
16824;SDS011;8529;48.108;-1.706;2023-02-28T09:37:19;18.63;;;10.13;;
16824;SDS011;8529;48.108;-1.706;2023-02-28T09:39:46;17.07;;;9.97;;
16824;SDS011;8529;48.108;-1.706;2023-02-28T09:42:17;16.73;;;10.27;;
16824;SDS011;8529;48.108;-1.706;2023-02-28T09:44:48;17.97;;;9.70;;
16824;SDS011;8529;48.108;-1.706;2023-02-28T09:47:18;16.67;;;9.20;;
16824;SDS011;8529;48.108;-1.706;2023-02-28T09:49:54;14.50;;;8.33;;
16824;SDS011;8529;48.108;-1.706;2023-02-28T09:52:26;13.03;;;8.00;;
16824;SDS011;8529;48.108;-1.706;2023-02-28T09:54:56;18.23;;;9.77;;
16824;SDS011;8529;48.108;-1.706;2023-02-28T09:57:29;15.57;;;9.60;;
16824;SDS011;8529;48.108;-1.706;2023-02-28T10:00:02;14.87;;;9.33;;
16824;SDS011;8529;48.108;-1.706;2023-02-28T10:02:45;14.40;;;8.70;;
16824;SDS011;8529;48.108;-1.706;2023-02-28T10:05:25;15.13;;;8.00;;
16824;SDS011;8529;48.108;-1.706;2023-02-28T10:07:57;16.17;;;9.27;;
16824;SDS011;8529;48.108;-1.706;2023-02-28T10:10:32;14.07;;;8.80;;
16824;SDS011;8529;48.108;-1.706;2023-02-28T10:13:04;13.73;;;8.07;;
16824;SDS011;8529;48.108;-1.706;2023-02-28T10:15:39;12.97;;;7.80;;
16824;SDS011;8529;48.108;-1.706;2023-02-28T10:18:06;16.33;;;8.57;;
16824;SDS011;8529;48.108;-1.706;2023-02-28T10:20:41;13.80;;;7.13;;
16824;SDS011;8529;48.108;-1.706;2023-02-28T10:23:11;12.67;;;7.57;;
16824;SDS011;8529;48.108;-1.706;2023-02-28T10:25:44;13.83;;;7.27;;
16824;SDS011;8529;48.108;-1.706;2023-02-28T10:28:15;11.13;;;6.17;;
16824;SDS011;8529;48.108;-1.706;2023-02-28T10:30:43;9.23;;;5.60;;
16824;SDS011;8529;48.108;-1.706;2023-02-28T10:33:17;11.00;;;5.50;;
16824;SDS011;8529;48.108;-1.706;2023-02-28T10:35:48;11.50;;;5.43;;
16824;SDS011;8529;48.108;-1.706;2023-02-28T10:38:16;6.50;;;4.67;;
16824;SDS011;8529;48.108;-1.706;2023-02-28T10:40:47;7.77;;;5.60;;
16824;SDS011;8529;48.108;-1.706;2023-02-28T10:43:18;7.73;;;4.70;;
16824;SDS011;8529;48.108;-1.706;2023-02-28T10:45:57;10.77;;;4.90;;
16824;SDS011;8529;48.108;-1.706;2023-02-28T10:48:29;7.00;;;5.00;;
16824;SDS011;8529;48.108;-1.706;2023-02-28T10:51:03;9.37;;;5.30;;
16824;SDS011;8529;48.108;-1.706;2023-02-28T10:53:39;8.90;;;5.50;;
16824;SDS011;8529;48.108;-1.706;2023-02-28T10:56:15;9.60;;;5.47;;
16824;SDS011;8529;48.108;-1.706;2023-02-28T10:58:52;9.63;;;5.50;;
16824;SDS011;8529;48.108;-1.706;2023-02-28T11:01:21;7.83;;;5.20;;
16824;SDS011;8529;48.108;-1.706;2023-02-28T11:03:50;8.30;;;4.90;;
16824;SDS011;8529;48.108;-1.706;2023-02-28T11:06:20;7.17;;;4.37;;
16824;SDS011;8529;48.108;-1.706;2023-02-28T11:08:50;8.13;;;4.50;;
16824;SDS011;8529;48.108;-1.706;2023-02-28T11:11:18;7.57;;;4.20;;
16824;SDS011;8529;48.108;-1.706;2023-02-28T11:13:48;6.37;;;4.40;;
16824;SDS011;8529;48.108;-1.706;2023-02-28T11:16:19;7.53;;;3.50;;
16824;SDS011;8529;48.108;-1.706;2023-02-28T11:18:48;7.20;;;4.23;;
16824;SDS011;8529;48.108;-1.706;2023-02-28T11:21:22;6.37;;;3.90;;
16824;SDS011;8529;48.108;-1.706;2023-02-28T11:23:54;7.47;;;4.47;;
16824;SDS011;8529;48.108;-1.706;2023-02-28T11:26:40;7.70;;;4.03;;
16824;SDS011;8529;48.108;-1.706;2023-02-28T11:29:11;8.93;;;4.00;;
16824;SDS011;8529;48.108;-1.706;2023-02-28T11:31:45;6.47;;;4.03;;
16824;SDS011;8529;48.108;-1.706;2023-02-28T11:34:33;6.43;;;4.00;;
16824;SDS011;8529;48.108;-1.706;2023-02-28T11:37:03;6.60;;;3.80;;
16824;SDS011;8529;48.108;-1.706;2023-02-28T11:39:35;7.47;;;3.70;;
16824;SDS011;8529;48.108;-1.706;2023-02-28T11:42:06;4.50;;;3.03;;
16824;SDS011;8529;48.108;-1.706;2023-02-28T11:45:01;4.33;;;2.67;;
16824;SDS011;8529;48.108;-1.706;2023-02-28T11:47:42;5.30;;;2.90;;
16824;SDS011;8529;48.108;-1.706;2023-02-28T11:50:21;4.17;;;2.93;;
16824;SDS011;8529;48.108;-1.706;2023-02-28T11:53:00;5.67;;;2.97;;
16824;SDS011;8529;48.108;-1.706;2023-02-28T11:55:31;5.73;;;3.57;;
16824;SDS011;8529;48.108;-1.706;2023-02-28T11:58:10;4.93;;;3.37;;
16824;SDS011;8529;48.108;-1.706;2023-02-28T12:00:58;7.67;;;3.00;;
16824;SDS011;8529;48.108;-1.706;2023-02-28T12:03:38;4.60;;;3.20;;
16824;SDS011;8529;48.108;-1.706;2023-02-28T12:06:14;5.17;;;2.97;;
16824;SDS011;8529;48.108;-1.706;2023-02-28T12:08:54;4.53;;;2.90;;
16824;SDS011;8529;48.108;-1.706;2023-02-28T12:11:34;5.10;;;2.93;;
16824;SDS011;8529;48.108;-1.706;2023-02-28T12:14:44;8.57;;;2.60;;
16824;SDS011;8529;48.108;-1.706;2023-02-28T12:17:22;4.83;;;2.93;;
16824;SDS011;8529;48.108;-1.706;2023-02-28T12:20:09;5.80;;;3.57;;
16824;SDS011;8529;48.108;-1.706;2023-02-28T12:22:45;4.40;;;2.90;;
16824;SDS011;8529;48.108;-1.706;2023-02-28T12:25:28;6.57;;;3.13;;
16824;SDS011;8529;48.108;-1.706;2023-02-28T12:28:20;4.53;;;3.20;;
16824;SDS011;8529;48.108;-1.706;2023-02-28T12:30:53;7.83;;;3.47;;
16824;SDS011;8529;48.108;-1.706;2023-02-28T12:33:28;6.43;;;3.40;;
16824;SDS011;8529;48.108;-1.706;2023-02-28T12:35:59;6.03;;;3.73;;
16824;SDS011;8529;48.108;-1.706;2023-02-28T12:38:33;6.73;;;4.23;;
16824;SDS011;8529;48.108;-1.706;2023-02-28T12:41:04;6.60;;;4.07;;
16824;SDS011;8529;48.108;-1.706;2023-02-28T12:43:37;5.43;;;3.40;;
16824;SDS011;8529;48.108;-1.706;2023-02-28T12:46:09;5.73;;;3.70;;
16824;SDS011;8529;48.108;-1.706;2023-02-28T12:48:42;5.70;;;3.60;;
16824;SDS011;8529;48.108;-1.706;2023-02-28T12:51:12;5.37;;;3.20;;
16824;SDS011;8529;48.108;-1.706;2023-02-28T12:53:44;4.87;;;2.90;;
16824;SDS011;8529;48.108;-1.706;2023-02-28T12:56:22;5.83;;;2.83;;
16824;SDS011;8529;48.108;-1.706;2023-02-28T12:59:01;5.43;;;2.90;;
16824;SDS011;8529;48.108;-1.706;2023-02-28T13:01:37;4.20;;;3.00;;
16824;SDS011;8529;48.108;-1.706;2023-02-28T13:07:30;5.50;;;2.90;;
16824;SDS011;8529;48.108;-1.706;2023-02-28T13:10:12;4.33;;;2.90;;
16824;SDS011;8529;48.108;-1.706;2023-02-28T13:12:48;4.73;;;3.40;;
16824;SDS011;8529;48.108;-1.706;2023-02-28T13:15:17;4.33;;;3.03;;
16824;SDS011;8529;48.108;-1.706;2023-02-28T13:17:49;4.87;;;2.93;;
16824;SDS011;8529;48.108;-1.706;2023-02-28T13:20:19;3.97;;;3.20;;
16824;SDS011;8529;48.108;-1.706;2023-02-28T13:22:48;4.93;;;3.27;;
16824;SDS011;8529;48.108;-1.706;2023-02-28T13:34:35;5.10;;;3.17;;
16824;SDS011;8529;48.108;-1.706;2023-02-28T13:43:01;5.33;;;2.87;;
16824;SDS011;8529;48.108;-1.706;2023-02-28T13:45:30;4.63;;;3.37;;
16824;SDS011;8529;48.108;-1.706;2023-02-28T13:48:03;5.20;;;3.40;;
16824;SDS011;8529;48.108;-1.706;2023-02-28T13:50:35;4.43;;;3.50;;
16824;SDS011;8529;48.108;-1.706;2023-02-28T13:53:18;6.87;;;3.77;;
16824;SDS011;8529;48.108;-1.706;2023-02-28T13:56:21;5.20;;;3.40;;
16824;SDS011;8529;48.108;-1.706;2023-02-28T13:58:54;4.70;;;3.27;;
16824;SDS011;8529;48.108;-1.706;2023-02-28T14:01:29;5.60;;;3.60;;
16824;SDS011;8529;48.108;-1.706;2023-02-28T14:04:14;6.37;;;3.70;;
16824;SDS011;8529;48.108;-1.706;2023-02-28T14:06:57;5.40;;;3.77;;
16824;SDS011;8529;48.108;-1.706;2023-02-28T14:09:25;6.50;;;3.70;;
16824;SDS011;8529;48.108;-1.706;2023-02-28T14:11:54;4.03;;;3.20;;
16824;SDS011;8529;48.108;-1.706;2023-02-28T14:17:24;3.60;;;2.90;;
16824;SDS011;8529;48.108;-1.706;2023-02-28T14:19:52;3.67;;;3.13;;
16824;SDS011;8529;48.108;-1.706;2023-02-28T14:22:38;4.87;;;3.27;;
16824;SDS011;8529;48.108;-1.706;2023-02-28T14:25:19;5.17;;;3.50;;
16824;SDS011;8529;48.108;-1.706;2023-02-28T14:27:56;4.63;;;3.30;;
16824;SDS011;8529;48.108;-1.706;2023-02-28T14:33:40;7.13;;;3.27;;
16824;SDS011;8529;48.108;-1.706;2023-02-28T14:36:20;6.93;;;3.87;;
16824;SDS011;8529;48.108;-1.706;2023-02-28T14:38:53;8.33;;;4.40;;
16824;SDS011;8529;48.108;-1.706;2023-02-28T14:41:23;8.73;;;4.90;;
16824;SDS011;8529;48.108;-1.706;2023-02-28T14:43:55;13.43;;;6.80;;
16824;SDS011;8529;48.108;-1.706;2023-02-28T14:46:25;12.50;;;6.73;;
16824;SDS011;8529;48.108;-1.706;2023-02-28T14:48:56;13.40;;;7.17;;
16824;SDS011;8529;48.108;-1.706;2023-02-28T14:51:23;12.83;;;7.00;;
16824;SDS011;8529;48.108;-1.706;2023-02-28T14:53:55;12.67;;;7.87;;
16824;SDS011;8529;48.108;-1.706;2023-02-28T14:56:26;13.80;;;8.07;;
16824;SDS011;8529;48.108;-1.706;2023-02-28T14:58:57;10.13;;;6.23;;
16824;SDS011;8529;48.108;-1.706;2023-02-28T15:01:24;9.73;;;5.73;;
16824;SDS011;8529;48.108;-1.706;2023-02-28T15:03:59;11.50;;;6.47;;
16824;SDS011;8529;48.108;-1.706;2023-02-28T15:06:27;8.73;;;5.23;;
16824;SDS011;8529;48.108;-1.706;2023-02-28T15:09:14;8.03;;;5.90;;
16824;SDS011;8529;48.108;-1.706;2023-02-28T15:11:44;7.97;;;5.70;;
16824;SDS011;8529;48.108;-1.706;2023-02-28T15:14:19;6.97;;;5.10;;
16824;SDS011;8529;48.108;-1.706;2023-02-28T15:16:49;7.87;;;5.60;;
16824;SDS011;8529;48.108;-1.706;2023-02-28T15:19:20;9.17;;;5.30;;
16824;SDS011;8529;48.108;-1.706;2023-02-28T15:21:50;8.23;;;6.10;;
16824;SDS011;8529;48.108;-1.706;2023-02-28T15:24:23;7.60;;;5.27;;
16824;SDS011;8529;48.108;-1.706;2023-02-28T15:26:58;6.40;;;4.70;;
16824;SDS011;8529;48.108;-1.706;2023-02-28T15:29:32;6.03;;;4.63;;
16824;SDS011;8529;48.108;-1.706;2023-02-28T15:32:07;8.40;;;5.10;;
16824;SDS011;8529;48.108;-1.706;2023-02-28T15:34:46;8.77;;;5.67;;